Time;durP1;ratioP1;P1;durP2;ratioP2;P2;SDS_P1;SDS_P2;PMS_P1;PMS_P2;Temp;Humidity;BMP_temperature;BMP_pressure;BME280_temperature;BME280_humidity;BME280_pressure;Samples;Min_cycle;Max_cycle;Signal;HPM_P1;HPM_P2
2023/12/29 00:00:30;;;;;;;;;;;9.70;99.90;;;;;;4929868;28;20367;-59
2023/12/29 00:02:56;;;;;;;;;;;9.70;99.90;;;;;;4925945;28;19966;-60
2023/12/29 00:05:22;;;;;;;;;;;9.70;99.90;;;;;;4936906;28;19930;-58
2023/12/29 00:07:47;;;;;;;;;;;9.70;99.90;;;;;;4947880;28;20562;-60
2023/12/29 00:10:13;;;;;;;;;;;9.80;99.90;;;;;;4948771;28;20305;-60
2023/12/29 00:12:39;;;;;;;;;;;9.70;99.90;;;;;;4916062;28;19949;-59
2023/12/29 00:15:05;;;;;;;;;;;9.70;99.90;;;;;;4944222;28;19921;-59
2023/12/29 00:17:31;;;;;;;;;;;9.70;99.90;;;;;;4917881;28;19928;-60
2023/12/29 00:19:57;;;;;;;;;;;9.80;99.90;;;;;;4931520;28;19926;-60
2023/12/29 00:22:25;;;;;;;;;;;9.80;99.90;;;;;;4937910;28;20395;-60
2023/12/29 00:24:50;;;;;;;;;;;9.80;99.90;;;;;;4948203;28;20956;-60
2023/12/29 00:27:16;;;;;;;;;;;9.80;99.90;;;;;;4947676;28;19925;-60
2023/12/29 00:29:42;;;;;;;;;;;9.80;99.90;;;;;;4931925;28;20008;-59
2023/12/29 00:32:08;;;;;;;;;;;9.80;99.90;;;;;;4947704;28;19922;-60
2023/12/29 00:34:34;;;;;;;;;;;9.80;99.90;;;;;;4946379;28;20297;-60
2023/12/29 00:36:59;;;;;;;;;;;9.80;99.90;;;;;;4935584;28;19948;-59
2023/12/29 00:39:29;;;;;;;;;;;9.80;99.90;;;;;;4915731;28;19926;-60
2023/12/29 00:41:56;;;;;;;;;;;9.80;99.90;;;;;;4943066;28;20024;-60
2023/12/29 00:44:22;;;;;;;;;;;9.80;99.90;;;;;;4944152;28;19937;-60
2023/12/29 00:46:47;;;;;;;;;;;9.70;99.90;;;;;;4929681;28;19926;-60
2023/12/29 00:49:13;;;;;;;;;;;9.70;99.90;;;;;;4948735;28;19948;-60
2023/12/29 00:51:40;;;;;;;;;;;9.70;99.90;;;;;;4945662;28;20125;-60
2023/12/29 00:54:06;;;;;;;;;;;9.60;99.90;;;;;;4926503;28;20624;-60
2023/12/29 00:56:32;;;;;;;;;;;9.60;99.90;;;;;;4943988;28;19993;-60
2023/12/29 00:58:57;;;;;;;;;;;9.60;99.90;;;;;;4947837;28;20417;-60
2023/12/29 01:01:23;;;;;;;;;;;9.60;99.90;;;;;;4929479;28;19925;-60
2023/12/29 01:03:48;;;;;;;;;;;9.60;99.90;;;;;;4944937;28;20020;-60
2023/12/29 01:06:14;;;;;;;;;;;9.60;99.90;;;;;;4930038;28;20293;-59
2023/12/29 01:08:41;;;;;;;;;;;9.60;99.90;;;;;;4924191;28;19922;-60
2023/12/29 01:11:06;;;;;;;;;;;9.60;99.90;;;;;;4928746;28;19918;-59
2023/12/29 01:13:32;;;;;;;;;;;9.60;99.90;;;;;;4929625;28;19985;-60
2023/12/29 01:15:57;;;;;;;;;;;9.60;99.90;;;;;;4945376;28;19925;-58
2023/12/29 01:18:23;;;;;;;;;;;9.60;99.90;;;;;;4946753;28;19949;-60
2023/12/29 01:20:48;;;;;;;;;;;9.60;99.90;;;;;;4937786;28;19972;-60
2023/12/29 01:23:14;;;;;;;;;;;9.60;99.90;;;;;;4941342;28;20017;-60
2023/12/29 01:25:40;;;;;;;;;;;9.60;99.90;;;;;;4928822;28;20057;-59
2023/12/29 01:28:05;;;;;;;;;;;9.50;99.90;;;;;;4915524;28;19936;-60
2023/12/29 01:30:31;;;;;;;;;;;9.50;99.90;;;;;;4926643;28;20855;-61
2023/12/29 01:32:56;;;;;;;;;;;9.50;99.90;;;;;;4944020;28;19926;-59
2023/12/29 01:35:22;;;;;;;;;;;9.50;99.90;;;;;;4929180;28;20075;-60
2023/12/29 01:37:48;;;;;;;;;;;9.50;99.90;;;;;;4944260;28;20341;-59
2023/12/29 01:40:13;;;;;;;;;;;9.40;99.90;;;;;;4943823;28;19964;-59
2023/12/29 01:42:39;;;;;;;;;;;9.40;99.90;;;;;;4943233;28;21900;-60
2023/12/29 01:45:05;;;;;;;;;;;9.40;99.90;;;;;;4941470;28;19918;-59
2023/12/29 01:47:31;;;;;;;;;;;9.40;99.90;;;;;;4923655;28;19973;-60
2023/12/29 01:49:57;;;;;;;;;;;9.40;99.90;;;;;;4931024;28;20507;-59
2023/12/29 01:52:22;;;;;;;;;;;9.40;99.90;;;;;;4930218;28;19922;-60
2023/12/29 01:54:49;;;;;;;;;;;9.40;99.90;;;;;;4942187;28;20032;-59
2023/12/29 01:57:15;;;;;;;;;;;9.40;99.90;;;;;;4930467;28;21673;-59
2023/12/29 01:59:41;;;;;;;;;;;9.40;99.90;;;;;;4942433;28;19925;-59
2023/12/29 02:02:07;;;;;;;;;;;9.40;99.90;;;;;;4943068;28;20410;-59
2023/12/29 02:04:33;;;;;;;;;;;9.40;99.90;;;;;;4928616;28;19922;-58
2023/12/29 02:06:59;;;;;;;;;;;9.40;99.90;;;;;;4931900;28;19922;-59
2023/12/29 02:09:25;;;;;;;;;;;9.40;99.90;;;;;;4920673;28;20493;-60
2023/12/29 02:11:51;;;;;;;;;;;9.40;99.90;;;;;;4927827;28;19933;-60
2023/12/29 02:14:17;;;;;;;;;;;9.30;99.90;;;;;;4939379;28;20700;-60
2023/12/29 02:16:51;;;;;;;;;;;9.30;99.90;;;;;;4927062;28;20000;-60
2023/12/29 02:19:29;;;;;;;;;;;9.30;99.90;;;;;;4924371;28;19926;-60
2023/12/29 02:21:55;;;;;;;;;;;9.20;99.90;;;;;;4942046;28;20013;-59
2023/12/29 02:24:20;;;;;;;;;;;9.20;99.90;;;;;;4943844;28;19981;-60
2023/12/29 02:26:50;;;;;;;;;;;9.20;99.90;;;;;;4942470;28;20374;-59
2023/12/29 02:29:18;;;;;;;;;;;9.20;99.90;;;;;;4933087;28;19922;-59
2023/12/29 02:31:45;;;;;;;;;;;9.10;99.90;;;;;;4945080;28;20480;-59
2023/12/29 02:34:12;;;;;;;;;;;9.10;99.90;;;;;;4929848;28;19953;-59
2023/12/29 02:36:42;;;;;;;;;;;9.10;99.90;;;;;;4929245;28;19974;-60
2023/12/29 02:39:09;;;;;;;;;;;9.10;99.90;;;;;;4926081;28;19923;-60
2023/12/29 02:41:36;;;;;;;;;;;9.10;99.90;;;;;;4947469;28;20007;-60
2023/12/29 02:44:02;;;;;;;;;;;9.00;99.90;;;;;;4929845;28;20012;-58
2023/12/29 02:46:27;;;;;;;;;;;9.00;99.90;;;;;;4947112;28;19928;-60
2023/12/29 02:48:53;;;;;;;;;;;9.00;99.90;;;;;;4944150;28;20522;-59
2023/12/29 02:51:18;;;;;;;;;;;8.90;99.90;;;;;;4930296;28;19931;-59
2023/12/29 02:53:44;;;;;;;;;;;8.90;99.90;;;;;;4932863;28;19969;-59
2023/12/29 02:56:10;;;;;;;;;;;8.80;99.90;;;;;;4945135;28;20743;-60
2023/12/29 02:58:35;;;;;;;;;;;8.80;99.90;;;;;;4944153;28;19937;-60
2023/12/29 03:01:01;;;;;;;;;;;8.80;99.90;;;;;;4945813;28;20376;-59
2023/12/29 03:03:26;;;;;;;;;;;8.80;99.90;;;;;;4927466;28;19957;-59
2023/12/29 03:05:52;;;;;;;;;;;8.80;99.90;;;;;;4946746;28;19930;-60
2023/12/29 03:08:17;;;;;;;;;;;8.80;99.90;;;;;;4942714;28;20779;-59
2023/12/29 03:10:43;;;;;;;;;;;8.90;99.90;;;;;;4924426;28;19934;-60
2023/12/29 03:13:09;;;;;;;;;;;8.90;99.90;;;;;;4946777;28;22929;-58
2023/12/29 03:15:34;;;;;;;;;;;8.90;99.90;;;;;;4945861;28;19926;-60
2023/12/29 03:18:00;;;;;;;;;;;8.90;99.90;;;;;;4946152;28;19926;-60
2023/12/29 03:20:25;;;;;;;;;;;8.90;99.90;;;;;;4933267;28;20357;-59
2023/12/29 03:22:51;;;;;;;;;;;9.00;99.90;;;;;;4946811;28;20012;-60
2023/12/29 03:25:16;;;;;;;;;;;9.00;99.90;;;;;;4928175;28;19932;-59
2023/12/29 03:27:42;;;;;;;;;;;9.00;99.90;;;;;;4945415;28;20404;-60
2023/12/29 03:30:08;;;;;;;;;;;9.10;99.90;;;;;;4944954;28;20255;-59
2023/12/29 03:32:33;;;;;;;;;;;9.10;99.90;;;;;;4933707;28;19927;-60
2023/12/29 03:34:59;;;;;;;;;;;9.20;99.90;;;;;;4941407;28;19926;-59
2023/12/29 03:37:24;;;;;;;;;;;9.20;99.90;;;;;;4934259;28;19926;-58
2023/12/29 03:39:50;;;;;;;;;;;9.30;99.90;;;;;;4931608;28;21928;-60
2023/12/29 03:42:16;;;;;;;;;;;9.30;99.90;;;;;;4926078;28;21237;-60
2023/12/29 03:44:41;;;;;;;;;;;9.30;99.90;;;;;;4946942;28;20422;-60
2023/12/29 03:47:07;;;;;;;;;;;9.40;99.90;;;;;;4945412;28;19927;-60
2023/12/29 03:49:34;;;;;;;;;;;9.40;99.90;;;;;;4930041;28;20534;-60
2023/12/29 03:51:59;;;;;;;;;;;9.40;99.90;;;;;;4945206;28;19968;-60
2023/12/29 03:54:25;;;;;;;;;;;9.40;99.90;;;;;;4918100;28;19930;-59
2023/12/29 03:56:51;;;;;;;;;;;9.40;99.90;;;;;;4929416;28;20009;-60
2023/12/29 03:59:17;;;;;;;;;;;9.40;99.90;;;;;;4943135;28;20033;-60
2023/12/29 04:01:43;;;;;;;;;;;9.40;99.90;;;;;;4928412;28;20394;-59
2023/12/29 04:04:08;;;;;;;;;;;9.30;99.90;;;;;;4926673;28;19929;-60
2023/12/29 04:06:34;;;;;;;;;;;9.30;99.90;;;;;;4929600;28;19922;-60
2023/12/29 04:09:00;;;;;;;;;;;9.30;99.90;;;;;;4943038;28;20028;-59
2023/12/29 04:11:25;;;;;;;;;;;9.30;99.90;;;;;;4945174;28;19921;-59
2023/12/29 04:13:51;;;;;;;;;;;9.30;99.90;;;;;;4943833;28;20013;-60
2023/12/29 04:16:17;;;;;;;;;;;9.30;99.90;;;;;;4945782;28;19929;-60
2023/12/29 04:18:43;;;;;;;;;;;9.30;99.90;;;;;;4946642;28;20056;-59
2023/12/29 04:21:13;;;;;;;;;;;9.40;99.90;;;;;;4941951;28;19929;-60
2023/12/29 04:23:38;;;;;;;;;;;9.30;99.90;;;;;;4928897;28;20445;-59
2023/12/29 04:26:04;;;;;;;;;;;9.30;99.90;;;;;;4944740;28;19925;-60
2023/12/29 04:28:29;;;;;;;;;;;9.30;99.90;;;;;;4924807;28;20202;-60
2023/12/29 04:30:55;;;;;;;;;;;9.30;99.90;;;;;;4939836;28;20271;-60
2023/12/29 04:33:20;;;;;;;;;;;9.30;99.90;;;;;;4926251;28;20519;-60
2023/12/29 04:35:46;;;;;;;;;;;9.30;99.90;;;;;;4942985;28;19932;-60
2023/12/29 04:38:12;;;;;;;;;;;9.30;99.90;;;;;;4945860;28;19926;-60
2023/12/29 04:40:37;;;;;;;;;;;9.30;99.90;;;;;;4933827;28;19926;-60
2023/12/29 04:43:03;;;;;;;;;;;9.30;99.90;;;;;;4941328;28;20555;-60
2023/12/29 04:45:29;;;;;;;;;;;9.20;99.90;;;;;;4924318;28;19933;-59
2023/12/29 04:47:54;;;;;;;;;;;9.30;99.90;;;;;;4931749;28;20416;-60
2023/12/29 04:50:20;;;;;;;;;;;9.30;99.90;;;;;;4943412;28;20570;-59
2023/12/29 04:52:46;;;;;;;;;;;9.20;99.90;;;;;;4921552;28;19969;-59
2023/12/29 04:55:12;;;;;;;;;;;9.30;99.90;;;;;;4928674;28;19925;-59
2023/12/29 04:57:38;;;;;;;;;;;9.20;99.90;;;;;;4939601;28;19979;-58
2023/12/29 05:00:04;;;;;;;;;;;9.20;99.90;;;;;;4942435;28;20021;-60
2023/12/29 05:02:30;;;;;;;;;;;9.20;99.90;;;;;;4945811;28;19973;-59
2023/12/29 05:04:55;;;;;;;;;;;9.20;99.90;;;;;;4944568;28;19931;-58
2023/12/29 05:07:21;;;;;;;;;;;9.20;99.90;;;;;;4936381;28;19930;-59
2023/12/29 05:09:46;;;;;;;;;;;9.20;99.90;;;;;;4926988;28;20045;-59
2023/12/29 05:12:12;;;;;;;;;;;9.20;99.90;;;;;;4937221;28;19949;-59
2023/12/29 05:14:37;;;;;;;;;;;9.20;99.90;;;;;;4943024;28;19922;-59
2023/12/29 05:17:03;;;;;;;;;;;9.20;99.90;;;;;;4942735;28;19929;-59
2023/12/29 05:19:29;;;;;;;;;;;9.20;99.90;;;;;;4926391;28;19933;-59
2023/12/29 05:21:54;;;;;;;;;;;9.10;99.90;;;;;;4928365;28;19972;-60
2023/12/29 05:24:20;;;;;;;;;;;9.10;99.90;;;;;;4941650;28;19918;-60
2023/12/29 05:26:45;;;;;;;;;;;9.20;99.90;;;;;;4936086;28;19999;-59
2023/12/29 05:29:11;;;;;;;;;;;9.20;99.90;;;;;;4942613;28;20282;-58
2023/12/29 05:31:36;;;;;;;;;;;9.20;99.90;;;;;;4940289;28;19925;-59
2023/12/29 05:34:02;;;;;;;;;;;9.20;99.90;;;;;;4924702;28;19989;-59
2023/12/29 05:36:28;;;;;;;;;;;9.20;99.90;;;;;;4930356;28;20444;-60
2023/12/29 05:38:53;;;;;;;;;;;9.30;99.90;;;;;;4943934;28;19926;-60
2023/12/29 05:41:19;;;;;;;;;;;9.20;99.90;;;;;;4942502;28;19934;-60
2023/12/29 05:43:44;;;;;;;;;;;9.20;99.90;;;;;;4932421;28;19939;-59
2023/12/29 05:46:11;;;;;;;;;;;9.20;99.90;;;;;;4923377;28;20394;-59
2023/12/29 05:48:37;;;;;;;;;;;9.20;99.90;;;;;;4915119;28;19926;-59
2023/12/29 05:51:07;;;;;;;;;;;9.20;99.90;;;;;;4922577;28;19934;-59
2023/12/29 05:53:33;;;;;;;;;;;9.20;99.90;;;;;;4938361;28;19933;-59
2023/12/29 05:55:59;;;;;;;;;;;9.20;99.90;;;;;;4915662;28;19930;-59
2023/12/29 05:58:24;;;;;;;;;;;9.20;99.90;;;;;;4931889;28;20688;-59
2023/12/29 06:00:50;;;;;;;;;;;9.20;99.90;;;;;;4923588;28;19928;-59
2023/12/29 06:03:15;;;;;;;;;;;9.20;99.90;;;;;;4936144;28;20052;-60
2023/12/29 06:05:41;;;;;;;;;;;9.20;99.90;;;;;;4940407;28;20099;-60
2023/12/29 06:08:07;;;;;;;;;;;9.20;99.90;;;;;;4939253;28;19932;-59
2023/12/29 06:10:33;;;;;;;;;;;9.20;99.90;;;;;;4919661;28;19925;-59
2023/12/29 06:13:00;;;;;;;;;;;9.20;99.90;;;;;;4936504;28;19922;-60
2023/12/29 06:15:26;;;;;;;;;;;9.20;99.90;;;;;;4939503;28;21254;-59
2023/12/29 06:17:51;;;;;;;;;;;9.20;99.90;;;;;;4939113;28;19922;-59
2023/12/29 06:20:17;;;;;;;;;;;9.20;99.90;;;;;;4937860;28;20056;-60
2023/12/29 06:22:44;;;;;;;;;;;9.20;99.90;;;;;;4939755;28;19926;-60
2023/12/29 06:25:10;;;;;;;;;;;9.20;99.90;;;;;;4925474;28;20293;-59
2023/12/29 06:27:40;;;;;;;;;;;9.20;99.90;;;;;;4936082;28;19932;-60
2023/12/29 06:30:06;;;;;;;;;;;9.10;99.90;;;;;;4938230;28;19922;-60
2023/12/29 06:32:32;;;;;;;;;;;9.10;99.90;;;;;;4928358;28;19922;-60
2023/12/29 06:34:57;;;;;;;;;;;9.10;99.90;;;;;;4938458;28;20629;-60
2023/12/29 06:37:23;;;;;;;;;;;9.10;99.90;;;;;;4942190;28;19930;-59
2023/12/29 06:39:49;;;;;;;;;;;9.10;99.90;;;;;;4941235;28;19933;-60
2023/12/29 06:42:14;;;;;;;;;;;9.00;99.90;;;;;;4944291;28;19930;-60
2023/12/29 06:44:40;;;;;;;;;;;9.00;99.90;;;;;;4939844;28;19921;-60
2023/12/29 06:47:06;;;;;;;;;;;9.00;99.90;;;;;;4916946;28;19929;-60
2023/12/29 06:49:33;;;;;;;;;;;9.00;99.90;;;;;;4939287;28;23153;-60
2023/12/29 06:51:59;;;;;;;;;;;9.00;99.90;;;;;;4937439;28;19927;-60
2023/12/29 06:54:25;;;;;;;;;;;9.00;99.90;;;;;;4923638;28;19933;-59
2023/12/29 06:56:50;;;;;;;;;;;9.00;99.90;;;;;;4910325;28;19984;-60
2023/12/29 06:59:16;;;;;;;;;;;9.00;99.90;;;;;;4934623;28;19932;-60
2023/12/29 07:01:41;;;;;;;;;;;9.00;99.90;;;;;;4938030;28;19929;-60
2023/12/29 07:04:10;;;;;;;;;;;8.90;99.90;;;;;;4911903;28;19922;-60
2023/12/29 07:06:36;;;;;;;;;;;8.90;99.90;;;;;;4923627;28;19940;-60
2023/12/29 07:09:02;;;;;;;;;;;8.90;99.90;;;;;;4928749;28;19930;-59
2023/12/29 07:11:28;;;;;;;;;;;9.00;99.90;;;;;;4934922;28;20407;-60
2023/12/29 07:13:54;;;;;;;;;;;9.00;99.90;;;;;;4942240;28;20369;-59
2023/12/29 07:16:20;;;;;;;;;;;9.00;99.90;;;;;;4939616;28;19937;-60
2023/12/29 07:18:46;;;;;;;;;;;9.00;99.90;;;;;;4937813;28;19921;-59
2023/12/29 07:21:12;;;;;;;;;;;9.00;99.90;;;;;;4942671;28;19927;-59
2023/12/29 07:23:38;;;;;;;;;;;9.00;99.90;;;;;;4943355;28;19928;-59
2023/12/29 07:26:04;;;;;;;;;;;9.00;99.90;;;;;;4921174;28;20847;-60
2023/12/29 07:28:29;;;;;;;;;;;9.00;99.90;;;;;;4919591;28;20020;-59
2023/12/29 07:30:55;;;;;;;;;;;9.00;99.90;;;;;;4942242;28;19926;-60
2023/12/29 07:33:21;;;;;;;;;;;9.00;99.90;;;;;;4910859;28;19922;-59
2023/12/29 07:35:46;;;;;;;;;;;9.00;99.90;;;;;;4941841;28;19953;-60
2023/12/29 07:38:13;;;;;;;;;;;9.00;99.90;;;;;;4921491;28;19926;-60
2023/12/29 07:40:38;;;;;;;;;;;9.00;99.90;;;;;;4922388;28;21050;-59
2023/12/29 07:43:04;;;;;;;;;;;9.00;99.90;;;;;;4935447;28;19927;-59
2023/12/29 07:45:29;;;;;;;;;;;8.90;99.90;;;;;;4908063;28;20439;-60
2023/12/29 07:47:55;;;;;;;;;;;8.90;99.90;;;;;;4924921;28;19934;-59
2023/12/29 07:50:21;;;;;;;;;;;8.90;99.90;;;;;;4924940;28;19922;-60
2023/12/29 07:52:46;;;;;;;;;;;8.90;99.90;;;;;;4921803;28;20510;-60
2023/12/29 07:55:12;;;;;;;;;;;8.80;99.90;;;;;;4920948;28;20316;-60
2023/12/29 07:57:37;;;;;;;;;;;8.80;99.90;;;;;;4939653;28;19929;-59
2023/12/29 08:00:06;;;;;;;;;;;8.80;99.90;;;;;;4921750;28;21041;-60
2023/12/29 08:02:31;;;;;;;;;;;8.80;99.90;;;;;;4925806;28;19928;-60
2023/12/29 08:04:57;;;;;;;;;;;8.80;99.90;;;;;;4933545;28;19922;-60
2023/12/29 08:07:23;;;;;;;;;;;8.80;99.90;;;;;;4946924;28;20368;-59
2023/12/29 08:09:48;;;;;;;;;;;8.80;99.90;;;;;;4951210;28;20025;-59
2023/12/29 08:12:14;;;;;;;;;;;8.80;99.90;;;;;;4925769;28;19922;-60
2023/12/29 08:14:40;;;;;;;;;;;8.80;99.90;;;;;;4937060;28;20831;-60
2023/12/29 08:17:07;;;;;;;;;;;8.80;99.90;;;;;;4942393;28;20035;-61
2023/12/29 08:19:32;;;;;;;;;;;8.90;99.90;;;;;;4928827;28;19962;-60
2023/12/29 08:21:58;;;;;;;;;;;8.90;99.90;;;;;;4937052;28;19922;-60
2023/12/29 08:24:23;;;;;;;;;;;8.90;99.90;;;;;;4934953;28;20361;-60
2023/12/29 08:26:49;;;;;;;;;;;8.90;99.90;;;;;;4943880;28;19926;-60
2023/12/29 08:29:14;;;;;;;;;;;8.90;99.90;;;;;;4949037;28;20016;-59
2023/12/29 08:31:41;;;;;;;;;;;8.90;99.90;;;;;;4934612;28;19922;-60
2023/12/29 08:34:06;;;;;;;;;;;8.90;99.90;;;;;;4943443;28;21688;-58
2023/12/29 08:36:32;;;;;;;;;;;8.90;99.90;;;;;;4941467;28;19933;-60
2023/12/29 08:38:58;;;;;;;;;;;8.90;99.90;;;;;;4932427;28;20040;-59
2023/12/29 08:41:24;;;;;;;;;;;9.00;99.90;;;;;;4929203;28;19932;-60
2023/12/29 08:43:49;;;;;;;;;;;9.00;99.90;;;;;;4936237;28;19922;-60
2023/12/29 08:46:15;;;;;;;;;;;9.00;99.90;;;;;;4947174;28;20038;-60
2023/12/29 08:48:40;;;;;;;;;;;9.00;99.90;;;;;;4914601;28;19929;-60
2023/12/29 08:51:06;;;;;;;;;;;9.00;99.90;;;;;;4925228;28;20270;-60
2023/12/29 08:53:35;;;;;;;;;;;9.00;99.90;;;;;;4943959;28;20009;-60
2023/12/29 08:56:03;;;;;;;;;;;8.90;99.90;;;;;;4946001;28;20040;-59
2023/12/29 08:58:29;;;;;;;;;;;9.00;99.90;;;;;;4944201;28;19922;-59
2023/12/29 09:00:55;;;;;;;;;;;9.00;99.90;;;;;;4941733;28;20470;-60
2023/12/29 09:03:21;;;;;;;;;;;8.90;99.90;;;;;;4926809;28;20000;-60
2023/12/29 09:05:46;;;;;;;;;;;8.90;99.90;;;;;;4946725;28;20377;-59
2023/12/29 09:08:12;;;;;;;;;;;8.90;99.90;;;;;;4944904;28;21147;-59
2023/12/29 09:10:38;;;;;;;;;;;8.90;99.90;;;;;;4940065;28;19926;-58
2023/12/29 09:13:04;;;;;;;;;;;8.90;99.90;;;;;;4934690;28;19926;-60
2023/12/29 09:15:30;;;;;;;;;;;8.90;99.90;;;;;;4932819;28;19972;-60
2023/12/29 09:17:55;;;;;;;;;;;8.90;99.90;;;;;;4932381;28;19929;-59
2023/12/29 09:20:21;;;;;;;;;;;8.90;99.90;;;;;;4933104;28;20571;-60
2023/12/29 09:22:46;;;;;;;;;;;8.90;99.90;;;;;;4948620;28;20076;-60
2023/12/29 09:25:12;;;;;;;;;;;8.90;99.90;;;;;;4927458;28;20319;-60
2023/12/29 09:27:38;;;;;;;;;;;8.90;99.90;;;;;;4946359;28;19922;-60
2023/12/29 09:30:04;;;;;;;;;;;8.90;99.90;;;;;;4943585;28;19926;-60
2023/12/29 09:32:30;;;;;;;;;;;8.90;99.90;;;;;;4931922;28;19929;-59
2023/12/29 09:34:56;;;;;;;;;;;8.90;99.90;;;;;;4920129;28;19922;-59
2023/12/29 09:37:22;;;;;;;;;;;9.00;99.90;;;;;;4940523;28;20381;-58
2023/12/29 09:39:47;;;;;;;;;;;9.10;99.90;;;;;;4915481;28;20040;-59
2023/12/29 09:42:16;;;;;;;;;;;9.10;99.90;;;;;;4922989;28;20333;-59
2023/12/29 09:44:43;;;;;;;;;;;9.10;99.90;;;;;;4928520;28;20277;-60
2023/12/29 09:47:09;;;;;;;;;;;9.20;99.90;;;;;;4943716;28;19929;-60
2023/12/29 09:49:37;;;;;;;;;;;9.10;99.90;;;;;;4924205;28;19933;-60
2023/12/29 09:52:03;;;;;;;;;;;9.20;99.90;;;;;;4944691;28;19926;-60
2023/12/29 09:54:29;;;;;;;;;;;9.20;99.90;;;;;;4944550;28;19933;-58
2023/12/29 09:56:55;;;;;;;;;;;9.20;99.90;;;;;;4939826;28;20065;-59
2023/12/29 09:59:21;;;;;;;;;;;9.20;99.90;;;;;;4932708;28;19925;-60
2023/12/29 10:01:47;;;;;;;;;;;9.20;99.90;;;;;;4932480;28;19976;-59
2023/12/29 10:04:12;;;;;;;;;;;9.30;99.90;;;;;;4920980;28;20713;-59
2023/12/29 10:06:41;;;;;;;;;;;9.30;99.90;;;;;;4915173;28;19972;-60
2023/12/29 10:09:10;;;;;;;;;;;9.30;99.90;;;;;;4938851;28;19972;-60
2023/12/29 10:11:37;;;;;;;;;;;9.30;99.90;;;;;;4908284;28;20005;-59
2023/12/29 10:14:05;;;;;;;;;;;9.30;99.90;;;;;;4930064;28;20018;-60
2023/12/29 10:16:37;;;;;;;;;;;9.30;99.90;;;;;;4943288;28;19929;-59
2023/12/29 10:19:10;;;;;;;;;;;9.30;99.90;;;;;;4945017;28;19930;-59
2023/12/29 10:21:42;;;;;;;;;;;9.40;99.90;;;;;;4942630;28;20385;-59
2023/12/29 10:24:12;;;;;;;;;;;9.40;99.90;;;;;;4931091;28;20837;-59
2023/12/29 10:26:39;;;;;;;;;;;9.40;99.90;;;;;;4942910;28;20289;-60
2023/12/29 10:29:05;;;;;;;;;;;9.40;99.90;;;;;;4929126;28;19921;-59
2023/12/29 10:31:31;;;;;;;;;;;9.40;99.90;;;;;;4930977;28;19922;-60
2023/12/29 10:34:15;;;;;;;;;;;9.40;99.90;;;;;;4941195;28;19974;-59
2023/12/29 10:36:49;;;;;;;;;;;9.40;99.90;;;;;;4944303;28;19937;-58
2023/12/29 10:39:15;;;;;;;;;;;9.40;99.90;;;;;;4934969;28;19982;-59
2023/12/29 10:41:41;;;;;;;;;;;9.40;99.90;;;;;;4947105;28;19922;-58
2023/12/29 10:44:07;;;;;;;;;;;9.40;99.90;;;;;;4945561;28;19925;-59
2023/12/29 10:46:33;;;;;;;;;;;9.40;99.90;;;;;;4944918;28;19932;-58
2023/12/29 10:49:09;;;;;;;;;;;9.40;99.90;;;;;;4929528;28;20452;-60
2023/12/29 10:51:35;;;;;;;;;;;9.30;99.90;;;;;;4934101;28;19957;-59
2023/12/29 10:54:00;;;;;;;;;;;9.40;99.90;;;;;;4944333;28;19922;-59
2023/12/29 10:56:26;;;;;;;;;;;9.40;99.90;;;;;;4942165;28;20020;-59
2023/12/29 10:58:59;;;;;;;;;;;9.40;99.90;;;;;;4928433;28;20396;-59
2023/12/29 11:01:25;;;;;;;;;;;9.50;99.90;;;;;;4946492;28;19932;-60
2023/12/29 11:04:01;;;;;;;;;;;9.50;99.90;;;;;;4947286;28;20567;-59
2023/12/29 11:06:27;;;;;;;;;;;9.50;99.90;;;;;;4945359;28;19965;-58
2023/12/29 11:08:53;;;;;;;;;;;9.50;99.90;;;;;;4940130;28;20397;-59
2023/12/29 11:11:19;;;;;;;;;;;9.40;99.90;;;;;;4926874;28;20162;-59
2023/12/29 11:13:48;;;;;;;;;;;9.40;99.90;;;;;;4944297;28;20610;-59
2023/12/29 11:16:17;;;;;;;;;;;9.30;99.90;;;;;;4930455;28;20032;-59
2023/12/29 11:18:44;;;;;;;;;;;9.30;99.90;;;;;;4928813;28;20032;-58
2023/12/29 11:21:10;;;;;;;;;;;9.30;99.90;;;;;;4942343;28;20808;-58
2023/12/29 11:23:36;;;;;;;;;;;9.30;99.90;;;;;;4944241;28;19926;-57
2023/12/29 11:26:03;;;;;;;;;;;9.30;99.90;;;;;;4938945;28;19926;-57
2023/12/29 11:28:28;;;;;;;;;;;9.30;99.90;;;;;;4946335;28;20384;-59
2023/12/29 11:30:54;;;;;;;;;;;9.20;99.90;;;;;;4923932;28;19922;-58
2023/12/29 11:33:31;;;;;;;;;;;9.20;99.90;;;;;;4941054;28;19922;-57
2023/12/29 11:36:23;;;;;;;;;;;9.20;99.90;;;;;;4946348;28;20059;-58
2023/12/29 11:39:08;;;;;;;;;;;9.20;99.90;;;;;;4945959;28;20375;-58
2023/12/29 11:41:39;;;;;;;;;;;9.20;99.90;;;;;;4947654;28;19968;-58
2023/12/29 11:44:05;;;;;;;;;;;9.20;99.90;;;;;;4945284;28;19922;-57
2023/12/29 11:46:34;;;;;;;;;;;9.10;99.90;;;;;;4930709;28;20550;-59
2023/12/29 11:49:03;;;;;;;;;;;9.10;99.90;;;;;;4943798;28;19929;-58
2023/12/29 11:51:35;;;;;;;;;;;9.10;99.90;;;;;;4929289;28;20345;-58
2023/12/29 11:54:04;;;;;;;;;;;9.10;99.90;;;;;;4949400;28;20270;-58
2023/12/29 11:56:31;;;;;;;;;;;9.20;99.90;;;;;;4945772;28;19926;-57
2023/12/29 11:59:11;;;;;;;;;;;9.20;99.90;;;;;;4942842;28;19953;-58
2023/12/29 12:01:37;;;;;;;;;;;9.30;99.90;;;;;;4947939;28;19921;-57
2023/12/29 12:04:02;;;;;;;;;;;9.40;99.90;;;;;;4946508;28;19926;-58
2023/12/29 12:06:40;;;;;;;;;;;9.40;99.90;;;;;;4946131;28;19989;-57
2023/12/29 12:09:35;;;;;;;;;;;9.50;99.90;;;;;;4948959;28;20271;-58
2023/12/29 12:12:04;;;;;;;;;;;9.50;99.90;;;;;;4933465;28;19994;-57
2023/12/29 12:14:42;;;;;;;;;;;9.60;99.90;;;;;;4946741;28;20424;-59
2023/12/29 12:17:08;;;;;;;;;;;9.60;99.90;;;;;;4919658;28;20056;-57
2023/12/29 12:19:35;;;;;;;;;;;9.60;99.90;;;;;;4948281;28;22119;-57
2023/12/29 12:22:02;;;;;;;;;;;9.60;99.90;;;;;;4940728;28;19964;-57
2023/12/29 12:24:27;;;;;;;;;;;9.60;99.90;;;;;;4944548;28;20413;-58
2023/12/29 12:26:54;;;;;;;;;;;9.60;99.90;;;;;;4932301;28;20191;-58
2023/12/29 12:29:19;;;;;;;;;;;9.50;99.90;;;;;;4933506;28;19921;-59
2023/12/29 12:31:57;;;;;;;;;;;9.50;99.90;;;;;;4945854;28;20470;-57
2023/12/29 12:34:23;;;;;;;;;;;9.40;99.90;;;;;;4950359;28;20406;-57
2023/12/29 12:36:52;;;;;;;;;;;9.40;99.90;;;;;;4951938;28;20038;-59
2023/12/29 12:39:18;;;;;;;;;;;9.30;99.90;;;;;;4932237;28;19969;-59
2023/12/29 12:41:44;;;;;;;;;;;9.30;99.90;;;;;;4945820;28;19954;-58
2023/12/29 12:44:11;;;;;;;;;;;9.30;99.90;;;;;;4950834;28;20478;-58
2023/12/29 12:46:40;;;;;;;;;;;9.30;99.90;;;;;;4948964;28;19922;-59
2023/12/29 12:49:05;;;;;;;;;;;9.20;99.90;;;;;;4948181;28;20448;-58
2023/12/29 12:51:32;;;;;;;;;;;9.20;99.90;;;;;;4950707;28;20388;-59
2023/12/29 12:53:58;;;;;;;;;;;9.20;99.90;;;;;;4935998;28;19921;-59
2023/12/29 12:56:27;;;;;;;;;;;9.10;99.90;;;;;;4949272;28;19983;-57
2023/12/29 12:58:57;;;;;;;;;;;9.10;99.90;;;;;;4945685;28;20099;-58
2023/12/29 13:01:23;;;;;;;;;;;9.00;99.90;;;;;;4948076;28;19922;-57
2023/12/29 13:03:48;;;;;;;;;;;9.00;99.90;;;;;;4932428;28;19919;-59
2023/12/29 13:06:16;;;;;;;;;;;8.90;99.90;;;;;;4928866;28;20157;-57
2023/12/29 13:08:42;;;;;;;;;;;8.90;99.90;;;;;;4921702;28;19933;-57
2023/12/29 13:11:07;;;;;;;;;;;8.90;99.90;;;;;;4949333;28;19926;-57
2023/12/29 13:13:40;;;;;;;;;;;8.80;99.90;;;;;;4946469;28;20483;-57
2023/12/29 13:16:05;;;;;;;;;;;8.80;99.90;;;;;;4940092;28;19949;-57
2023/12/29 13:18:32;;;;;;;;;;;8.80;99.90;;;;;;4949617;28;19923;-57
2023/12/29 13:20:58;;;;;;;;;;;8.70;99.90;;;;;;4944243;28;20455;-57
2023/12/29 13:23:29;;;;;;;;;;;8.80;99.90;;;;;;4926563;28;19925;-59
2023/12/29 13:26:04;;;;;;;;;;;8.70;99.90;;;;;;4943467;28;19926;-58
2023/12/29 13:28:31;;;;;;;;;;;8.70;99.90;;;;;;4946225;28;20017;-57
2023/12/29 13:30:57;;;;;;;;;;;8.70;99.90;;;;;;4930682;28;19922;-55
2023/12/29 13:33:55;;;;;;;;;;;8.70;99.90;;;;;;4945568;28;19942;-58
2023/12/29 13:36:23;;;;;;;;;;;8.70;99.90;;;;;;4925423;28;19934;-57
2023/12/29 13:38:52;;;;;;;;;;;8.70;99.90;;;;;;4940735;28;20395;-58
2023/12/29 13:41:18;;;;;;;;;;;8.70;99.90;;;;;;4940932;28;19926;-57
2023/12/29 13:43:45;;;;;;;;;;;8.70;99.90;;;;;;4923534;28;19929;-56
2023/12/29 13:46:12;;;;;;;;;;;8.70;99.90;;;;;;4944648;28;20411;-58
2023/12/29 13:48:38;;;;;;;;;;;8.70;99.90;;;;;;4943804;28;20638;-58
2023/12/29 13:51:04;;;;;;;;;;;8.70;99.90;;;;;;4942865;28;20397;-57
2023/12/29 13:53:30;;;;;;;;;;;8.60;99.90;;;;;;4943364;28;19929;-56
2023/12/29 13:56:22;;;;;;;;;;;8.60;99.90;;;;;;4940127;28;20261;-58
2023/12/29 13:58:51;;;;;;;;;;;8.60;99.90;;;;;;4906200;28;19923;-58
2023/12/29 14:01:16;;;;;;;;;;;8.60;99.90;;;;;;4941799;28;20349;-57
2023/12/29 14:04:02;;;;;;;;;;;8.60;99.90;;;;;;4946124;28;19933;-57
2023/12/29 14:06:48;;;;;;;;;;;8.50;99.90;;;;;;4936832;28;19921;-58
2023/12/29 14:09:17;;;;;;;;;;;8.60;99.90;;;;;;4939950;28;19942;-57
2023/12/29 14:11:44;;;;;;;;;;;8.50;99.90;;;;;;4948441;28;19934;-57
2023/12/29 14:14:10;;;;;;;;;;;8.50;99.90;;;;;;4905994;28;21309;-57
2023/12/29 14:16:38;;;;;;;;;;;8.50;99.90;;;;;;4944339;28;19934;-56
2023/12/29 14:19:05;;;;;;;;;;;8.50;99.90;;;;;;4944745;28;20000;-57
2023/12/29 14:21:31;;;;;;;;;;;8.50;99.90;;;;;;4941626;28;20163;-57
2023/12/29 14:24:02;;;;;;;;;;;8.50;99.90;;;;;;4937950;28;19928;-58
2023/12/29 14:26:28;;;;;;;;;;;8.50;99.90;;;;;;4939976;28;19921;-57
2023/12/29 14:29:00;;;;;;;;;;;8.50;99.90;;;;;;4936839;28;19926;-58